createdAt,value
2019-03-27T00:00:20.405Z,92.40
2019-03-27T00:02:49.103Z,92.30
2019-03-27T00:05:17.664Z,92.40
2019-03-27T00:07:46.230Z,92.40
2019-03-27T00:10:14.775Z,92.40
2019-03-27T00:12:43.375Z,92.30
2019-03-27T00:15:13.716Z,92.40
2019-03-27T00:17:43.441Z,92.30
2019-03-27T00:20:12.274Z,92.40
2019-03-27T00:22:40.832Z,92.40
2019-03-27T00:25:11.530Z,92.30
2019-03-27T00:27:40.047Z,92.40
2019-03-27T00:30:09.974Z,92.60
2019-03-27T00:32:38.671Z,92.60
2019-03-27T00:35:07.819Z,92.50
2019-03-27T00:37:36.387Z,92.70
2019-03-27T00:40:08.530Z,92.80
2019-03-27T00:42:37.073Z,92.90
2019-03-27T00:45:07.692Z,93.00
2019-03-27T00:47:36.252Z,93.10
2019-03-27T00:50:07.055Z,93.30
2019-03-27T00:52:35.675Z,93.50
2019-03-27T00:55:08.482Z,94.20
2019-03-27T00:57:37.035Z,94.00
2019-03-27T01:00:08.748Z,94.00
2019-03-27T01:02:37.399Z,94.10
2019-03-27T01:05:06.907Z,94.30
2019-03-27T01:07:35.469Z,94.30
2019-03-27T01:10:04.969Z,94.40
2019-03-27T01:12:33.531Z,94.50
2019-03-27T01:15:02.116Z,94.60
2019-03-27T01:17:30.735Z,94.60
2019-03-27T01:19:59.294Z,94.70
2019-03-27T01:22:27.856Z,94.80
2019-03-27T01:24:56.487Z,94.90
2019-03-27T01:27:25.083Z,95.10
2019-03-27T01:29:53.633Z,95.10
2019-03-27T01:32:22.195Z,95.10
2019-03-27T01:34:50.785Z,95.10
2019-03-27T01:37:19.438Z,95.20
2019-03-27T01:39:49.652Z,95.40
2019-03-27T01:42:19.763Z,95.70
2019-03-27T01:44:48.315Z,95.40
2019-03-27T01:47:16.931Z,95.40
2019-03-27T01:49:45.471Z,95.40
2019-03-27T01:52:14.029Z,95.40
2019-03-27T01:54:42.907Z,95.50
2019-03-27T01:57:11.455Z,95.60
2019-03-27T01:59:40.030Z,95.60
2019-03-27T02:02:08.614Z,95.70
2019-03-27T02:04:37.189Z,95.70
2019-03-27T02:07:05.808Z,95.70
2019-03-27T02:09:34.363Z,95.90
2019-03-27T02:12:02.919Z,95.90
2019-03-27T02:14:31.491Z,96.00
2019-03-27T02:17:00.124Z,96.10
2019-03-27T02:19:28.727Z,96.00
2019-03-27T02:21:57.363Z,96.00
2019-03-27T02:24:25.912Z,96.10
2019-03-27T02:26:55.587Z,96.10
2019-03-27T02:29:24.126Z,96.10
2019-03-27T02:31:52.697Z,96.10
2019-03-27T02:34:21.336Z,96.00
2019-03-27T02:36:49.960Z,96.10
2019-03-27T02:39:18.510Z,96.10
2019-03-27T02:41:47.064Z,96.20
2019-03-27T02:44:15.606Z,96.20
2019-03-27T02:46:44.196Z,96.20
2019-03-27T02:49:12.752Z,96.20
2019-03-27T02:51:41.468Z,96.30
2019-03-27T02:54:10.012Z,96.30
2019-03-27T02:56:38.578Z,96.20
2019-03-27T02:59:07.137Z,96.20
2019-03-27T03:01:35.795Z,96.20
2019-03-27T03:04:04.486Z,96.30
2019-03-27T03:06:33.109Z,96.30
2019-03-27T03:09:01.604Z,96.30
2019-03-27T03:11:30.672Z,96.40
2019-03-27T03:13:59.206Z,96.30
2019-03-27T03:16:41.250Z,96.30
2019-03-27T03:18:58.024Z,96.40
2019-03-27T03:21:26.719Z,96.50
2019-03-27T03:23:55.354Z,96.40
2019-03-27T03:26:23.916Z,96.40
2019-03-27T03:28:52.573Z,96.40
2019-03-27T03:31:22.137Z,96.50
2019-03-27T03:33:50.709Z,96.40
2019-03-27T03:36:19.252Z,96.40
2019-03-27T03:38:47.847Z,96.40
2019-03-27T03:41:16.528Z,96.20
2019-03-27T03:43:45.107Z,96.20
2019-03-27T03:46:13.676Z,96.20
2019-03-27T03:48:42.236Z,96.30
2019-03-27T03:51:10.960Z,96.10
2019-03-27T03:53:39.692Z,96.20
2019-03-27T03:56:09.473Z,96.10
2019-03-27T03:58:39.464Z,96.00
2019-03-27T04:01:08.099Z,96.10
2019-03-27T04:03:36.899Z,96.10
2019-03-27T04:06:05.488Z,96.10
2019-03-27T04:08:34.072Z,96.00
2019-03-27T04:11:02.644Z,95.90
2019-03-27T04:13:31.210Z,95.90
2019-03-27T04:15:59.743Z,96.20
2019-03-27T04:18:28.345Z,95.90
2019-03-27T04:20:56.903Z,95.90
2019-03-27T04:23:25.471Z,95.80
2019-03-27T04:26:09.219Z,95.80
2019-03-27T04:28:24.268Z,95.90
2019-03-27T04:30:52.828Z,95.90
2019-03-27T04:33:21.375Z,95.90
2019-03-27T04:35:49.920Z,95.80
2019-03-27T04:38:18.516Z,95.70
2019-03-27T04:40:47.075Z,95.70
2019-03-27T04:43:15.678Z,95.40
2019-03-27T04:45:44.248Z,95.50
2019-03-27T04:48:12.793Z,95.00
2019-03-27T04:50:41.354Z,95.60
2019-03-27T04:53:09.912Z,95.40
2019-03-27T04:55:38.526Z,95.40
2019-03-27T04:58:07.102Z,95.50
2019-03-27T05:00:35.650Z,95.70
2019-03-27T05:03:04.508Z,95.60
2019-03-27T05:05:33.054Z,95.70
2019-03-27T05:08:01.644Z,95.50
2019-03-27T05:10:30.275Z,95.60
2019-03-27T05:12:58.853Z,95.50
2019-03-27T05:15:27.439Z,95.50
2019-03-27T05:17:56.025Z,95.30
2019-03-27T05:20:24.607Z,95.30
2019-03-27T05:22:53.172Z,95.10
2019-03-27T05:25:21.721Z,95.10
2019-03-27T05:27:50.329Z,95.20
2019-03-27T05:30:27.078Z,95.10
2019-03-27T05:32:56.008Z,95.10
2019-03-27T05:35:24.561Z,94.90
2019-03-27T05:37:58.426Z,95.10
2019-03-27T05:40:28.658Z,94.90
2019-03-27T05:43:01.041Z,94.90
2019-03-27T05:45:32.460Z,94.80
2019-03-27T05:48:02.582Z,94.80
2019-03-27T05:50:36.446Z,94.80
2019-03-27T05:53:05.030Z,94.80
2019-03-27T05:55:33.597Z,94.60
2019-03-27T05:58:02.207Z,94.60
2019-03-27T06:00:33.293Z,94.40
2019-03-27T06:03:01.030Z,94.50
2019-03-27T06:05:29.603Z,94.60
2019-03-27T06:07:58.160Z,94.60
2019-03-27T06:10:26.712Z,94.40
2019-03-27T06:12:55.317Z,94.20
2019-03-27T06:15:23.890Z,94.30
2019-03-27T06:17:52.483Z,94.20
2019-03-27T06:20:21.057Z,94.40
2019-03-27T06:22:49.634Z,94.10
2019-03-27T06:25:18.325Z,94.00
2019-03-27T06:27:46.878Z,94.10
2019-03-27T06:30:15.588Z,94.00
2019-03-27T06:32:44.236Z,93.60
2019-03-27T06:35:12.930Z,93.80
2019-03-27T06:37:42.499Z,93.60
2019-03-27T06:40:11.296Z,93.40
2019-03-27T06:42:40.032Z,93.50
2019-03-27T06:45:09.219Z,93.20
2019-03-27T06:47:37.790Z,93.40
2019-03-27T06:50:06.690Z,93.30
2019-03-27T06:52:35.296Z,93.10
2019-03-27T06:55:05.510Z,93.10
2019-03-27T06:57:34.214Z,93.00
2019-03-27T07:00:03.382Z,93.00
2019-03-27T07:02:31.872Z,92.80
2019-03-27T07:05:00.505Z,92.80
2019-03-27T07:07:29.121Z,92.90
2019-03-27T07:09:57.682Z,93.00
2019-03-27T07:12:26.233Z,92.80
2019-03-27T07:14:54.819Z,92.40
2019-03-27T07:17:23.387Z,92.20
2019-03-27T07:19:52.025Z,92.20
2019-03-27T07:22:20.610Z,92.20
2019-03-27T07:24:49.199Z,92.00
2019-03-27T07:27:17.753Z,91.60
2019-03-27T07:29:46.305Z,91.70
2019-03-27T07:32:14.891Z,91.60
2019-03-27T07:34:43.451Z,91.60
2019-03-27T07:37:12.023Z,91.50
2019-03-27T07:39:40.596Z,91.20
2019-03-27T07:42:09.174Z,91.30
2019-03-27T07:44:39.719Z,91.20
2019-03-27T07:47:09.951Z,91.20
2019-03-27T07:49:40.151Z,90.80
2019-03-27T07:52:08.816Z,90.60
2019-03-27T07:54:37.452Z,90.30
2019-03-27T07:57:06.011Z,90.10
2019-03-27T07:59:34.591Z,89.20
2019-03-27T08:02:03.135Z,88.10
2019-03-27T08:04:32.964Z,89.80
2019-03-27T08:07:01.465Z,88.70
2019-03-27T08:09:30.040Z,87.80
2019-03-27T08:12:00.130Z,86.40
2019-03-27T08:14:29.095Z,86.30
2019-03-27T08:16:58.553Z,85.30
2019-03-27T08:19:27.274Z,83.60
2019-03-27T08:21:55.855Z,82.60
2019-03-27T08:24:28.001Z,81.80
2019-03-27T08:26:57.835Z,82.20
2019-03-27T08:29:26.375Z,81.10
2019-03-27T08:31:56.119Z,81.40
2019-03-27T08:34:25.583Z,81.40
2019-03-27T08:36:54.135Z,80.40
2019-03-27T08:39:22.781Z,79.80
2019-03-27T08:41:52.660Z,79.10
2019-03-27T08:44:42.204Z,76.40
2019-03-27T08:47:10.857Z,76.50
2019-03-27T08:49:39.506Z,76.90
2019-03-27T08:52:09.797Z,76.30
2019-03-27T08:54:38.391Z,76.40
2019-03-27T08:57:06.986Z,74.90
2019-03-27T08:59:36.717Z,74.50
2019-03-27T09:02:05.258Z,74.60
2019-03-27T09:04:33.859Z,74.70
2019-03-27T09:07:02.502Z,72.30
2019-03-27T09:09:31.060Z,73.40
2019-03-27T09:11:59.628Z,74.00
2019-03-27T09:14:28.215Z,74.50
2019-03-27T09:16:56.853Z,74.40
2019-03-27T09:19:35.644Z,72.90
2019-03-27T09:21:55.747Z,71.90
2019-03-27T09:24:24.315Z,73.40
2019-03-27T09:26:52.871Z,75.20
2019-03-27T09:29:21.510Z,73.70
2019-03-27T09:31:50.106Z,72.00
2019-03-27T09:34:18.667Z,70.80
2019-03-27T09:36:47.216Z,70.90
2019-03-27T09:39:15.813Z,71.40
2019-03-27T09:41:44.372Z,72.50
2019-03-27T09:44:13.857Z,72.60
2019-03-27T09:46:42.429Z,72.90
2019-03-27T09:49:11.071Z,74.40
2019-03-27T09:51:39.639Z,74.10
2019-03-27T09:54:08.318Z,74.20
2019-03-27T09:56:38.517Z,74.40
2019-03-27T09:59:07.087Z,72.60
2019-03-27T10:01:35.646Z,72.20
2019-03-27T10:04:04.658Z,71.90
2019-03-27T10:06:33.275Z,72.10
2019-03-27T10:09:01.830Z,71.50
2019-03-27T10:11:30.386Z,70.60
2019-03-27T10:13:58.963Z,70.70
2019-03-27T10:16:27.503Z,68.60
2019-03-27T10:18:56.062Z,68.40
2019-03-27T10:21:24.667Z,65.90
2019-03-27T10:23:53.227Z,67.10
2019-03-27T10:26:21.766Z,67.00
2019-03-27T10:28:50.372Z,67.30
2019-03-27T10:31:18.984Z,66.20
2019-03-27T10:33:47.519Z,66.40
2019-03-27T10:36:16.220Z,65.00
2019-03-27T10:38:44.832Z,63.00
2019-03-27T10:41:13.374Z,64.20
2019-03-27T10:43:41.940Z,65.90
2019-03-27T10:46:10.492Z,65.90
2019-03-27T10:48:52.029Z,64.90
2019-03-27T10:51:09.302Z,64.00
2019-03-27T10:53:38.240Z,64.10
2019-03-27T10:56:07.275Z,64.50
2019-03-27T10:58:35.828Z,61.90
2019-03-27T11:01:07.102Z,60.60
2019-03-27T11:03:40.767Z,59.70
2019-03-27T11:06:09.368Z,59.50
2019-03-27T11:08:37.912Z,59.40
2019-03-27T11:11:06.728Z,59.00
2019-03-27T11:13:35.337Z,59.40
2019-03-27T11:16:03.973Z,60.00
2019-03-27T11:18:32.573Z,57.90
2019-03-27T11:21:01.123Z,57.60
2019-03-27T11:23:29.701Z,55.70
2019-03-27T11:25:58.277Z,51.20
2019-03-27T11:28:26.832Z,49.50
2019-03-27T11:30:55.956Z,50.10
2019-03-27T11:33:28.753Z,50.70
2019-03-27T11:35:55.738Z,49.40
2019-03-27T11:38:24.297Z,49.00
2019-03-27T11:40:52.856Z,49.40
2019-03-27T11:43:22.966Z,48.30
2019-03-27T11:45:51.516Z,46.80
2019-03-27T11:48:20.096Z,47.10
2019-03-27T11:50:48.652Z,46.60
2019-03-27T11:53:17.195Z,44.90
2019-03-27T11:55:45.810Z,44.00
2019-03-27T11:58:15.059Z,44.70
2019-03-27T12:00:54.295Z,45.30
2019-03-27T12:03:14.453Z,46.10
2019-03-27T12:05:45.605Z,45.70
2019-03-27T12:08:13.273Z,46.20
2019-03-27T12:10:41.885Z,47.50
2019-03-27T12:13:10.457Z,46.20
2019-03-27T12:15:40.525Z,45.40
2019-03-27T12:18:11.490Z,45.90
2019-03-27T12:20:40.106Z,46.80
2019-03-27T12:23:08.681Z,45.60
2019-03-27T12:25:37.377Z,45.00
2019-03-27T12:28:07.400Z,48.50
2019-03-27T12:30:36.558Z,48.70
2019-03-27T12:33:06.448Z,48.70
2019-03-27T12:35:35.027Z,47.90
2019-03-27T12:38:04.467Z,47.70
2019-03-27T12:40:33.192Z,48.00
2019-03-27T12:43:01.856Z,48.20
2019-03-27T12:45:30.411Z,48.10
2019-03-27T12:47:59.435Z,48.50
2019-03-27T12:50:28.583Z,48.20
2019-03-27T12:52:57.516Z,49.00
2019-03-27T12:55:26.206Z,48.40
2019-03-27T12:57:54.812Z,47.00
2019-03-27T13:00:23.796Z,47.80
2019-03-27T13:02:52.430Z,47.50
2019-03-27T13:05:39.277Z,46.70
2019-03-27T13:08:07.832Z,47.60
2019-03-27T13:10:36.473Z,48.20
2019-03-27T13:13:08.095Z,47.80
2019-03-27T13:15:36.651Z,47.70
2019-03-27T13:18:05.274Z,47.50
2019-03-27T13:20:33.828Z,47.10
2019-03-27T13:23:03.013Z,47.60
2019-03-27T13:25:31.759Z,47.10
2019-03-27T13:28:00.899Z,47.00
2019-03-27T13:30:30.479Z,46.20
2019-03-27T13:32:59.441Z,46.20
2019-03-27T13:35:30.245Z,46.00
2019-03-27T13:38:03.880Z,46.20
2019-03-27T13:40:32.452Z,45.60
2019-03-27T13:43:01.035Z,46.20
2019-03-27T13:45:29.584Z,46.00
2019-03-27T13:47:58.342Z,46.40
2019-03-27T13:50:27.449Z,47.40
2019-03-27T13:52:56.520Z,47.00
2019-03-27T13:55:25.035Z,46.00
2019-03-27T13:57:53.605Z,46.40
2019-03-27T14:00:22.323Z,46.20
2019-03-27T14:02:50.881Z,46.70
2019-03-27T14:05:19.449Z,47.20
2019-03-27T14:07:48.040Z,45.90
2019-03-27T14:10:27.279Z,45.40
2019-03-27T14:12:55.827Z,46.50
2019-03-27T14:15:24.447Z,46.10
2019-03-27T14:17:53.036Z,46.20
2019-03-27T14:20:21.724Z,46.90
2019-03-27T14:22:55.039Z,46.50
2019-03-27T14:25:23.703Z,47.20
2019-03-27T14:27:52.337Z,48.50
2019-03-27T14:30:43.704Z,47.50
2019-03-27T14:33:12.320Z,46.90
2019-03-27T14:35:42.113Z,46.50
2019-03-27T14:38:10.648Z,45.70
2019-03-27T14:40:39.232Z,46.00
2019-03-27T14:43:07.799Z,46.90
2019-03-27T14:45:36.348Z,46.20
2019-03-27T14:48:05.061Z,46.20
2019-03-27T14:50:33.616Z,46.50
2019-03-27T14:53:02.255Z,47.00
2019-03-27T14:55:30.827Z,47.00
2019-03-27T14:58:00.915Z,47.30
2019-03-27T15:00:29.561Z,47.80
2019-03-27T15:02:58.149Z,47.90
2019-03-27T15:05:28.159Z,47.90
2019-03-27T15:07:56.720Z,47.80
2019-03-27T15:10:25.348Z,48.30
2019-03-27T15:12:53.930Z,48.20
2019-03-27T15:15:22.896Z,48.70
2019-03-27T15:17:51.983Z,48.90
2019-03-27T15:20:20.648Z,49.10
2019-03-27T15:22:49.289Z,49.80
2019-03-27T15:25:17.861Z,49.20
2019-03-27T15:27:46.520Z,50.60
2019-03-27T15:30:15.703Z,50.40
2019-03-27T15:32:44.930Z,50.40
2019-03-27T15:35:13.561Z,51.50
2019-03-27T15:37:42.307Z,52.20
2019-03-27T15:40:12.591Z,52.20
2019-03-27T15:42:44.030Z,52.70
2019-03-27T15:45:13.610Z,53.00
2019-03-27T15:47:42.163Z,53.10
2019-03-27T15:50:10.952Z,53.70
2019-03-27T15:52:39.626Z,53.70
2019-03-27T15:55:08.353Z,54.00
2019-03-27T15:57:36.879Z,54.40
2019-03-27T16:00:06.208Z,54.90
2019-03-27T16:02:34.863Z,55.00
2019-03-27T16:05:04.069Z,55.40
2019-03-27T16:07:32.628Z,55.50
2019-03-27T16:10:01.248Z,55.80
2019-03-27T16:12:29.831Z,55.90
2019-03-27T16:14:58.383Z,56.30
2019-03-27T16:17:27.057Z,56.80
2019-03-27T16:19:55.621Z,57.20
2019-03-27T16:22:24.259Z,57.30
2019-03-27T16:24:52.870Z,57.30
2019-03-27T16:27:21.451Z,57.20
2019-03-27T16:29:51.875Z,57.30
2019-03-27T16:32:22.301Z,57.50
2019-03-27T16:34:53.025Z,57.50
2019-03-27T16:37:21.592Z,56.50
2019-03-27T16:39:50.151Z,56.00
2019-03-27T16:42:20.491Z,56.40
2019-03-27T16:44:50.571Z,56.20
2019-03-27T16:47:22.472Z,55.80
2019-03-27T16:49:51.201Z,56.10
2019-03-27T16:52:19.955Z,56.10
2019-03-27T16:54:48.556Z,55.60
2019-03-27T16:57:17.161Z,55.60
2019-03-27T16:59:45.712Z,55.80
2019-03-27T17:02:14.307Z,55.90
2019-03-27T17:04:42.873Z,55.70
2019-03-27T17:07:11.461Z,55.70
2019-03-27T17:09:40.151Z,55.80
2019-03-27T17:12:09.990Z,55.50
2019-03-27T17:14:41.016Z,55.10
2019-03-27T17:17:09.637Z,55.20
2019-03-27T17:19:40.621Z,55.00
2019-03-27T17:22:19.397Z,55.30
2019-03-27T17:24:40.548Z,55.40
2019-03-27T17:27:11.086Z,55.40
2019-03-27T17:29:39.654Z,55.50
2019-03-27T17:32:08.252Z,55.80
2019-03-27T17:34:36.819Z,55.60
2019-03-27T17:37:05.371Z,55.90
2019-03-27T17:39:33.947Z,56.00
2019-03-27T17:42:02.520Z,56.20
2019-03-27T17:44:31.212Z,56.10
2019-03-27T17:46:59.764Z,56.40
2019-03-27T17:49:28.665Z,56.20
2019-03-27T17:51:57.263Z,56.30
2019-03-27T17:54:25.898Z,56.40
2019-03-27T17:56:54.536Z,56.60
2019-03-27T17:59:23.171Z,56.40
2019-03-27T18:01:51.926Z,56.20
2019-03-27T18:04:20.581Z,56.60
2019-03-27T18:06:49.176Z,57.00
2019-03-27T18:09:17.858Z,56.90
2019-03-27T18:11:46.509Z,57.00
2019-03-27T18:14:15.095Z,56.70
2019-03-27T18:16:43.727Z,56.10
2019-03-27T18:19:12.675Z,56.30
2019-03-27T18:21:41.256Z,56.20
2019-03-27T18:24:09.811Z,57.00
2019-03-27T18:26:38.373Z,56.60
2019-03-27T18:29:06.935Z,56.70
2019-03-27T18:31:35.497Z,57.50
2019-03-27T18:34:04.158Z,57.00
2019-03-27T18:36:32.704Z,57.10
2019-03-27T18:39:01.250Z,57.00
2019-03-27T18:41:29.860Z,57.30
2019-03-27T18:43:58.485Z,57.40
2019-03-27T18:46:26.986Z,57.50
2019-03-27T18:48:56.677Z,57.70
2019-03-27T18:51:25.253Z,58.20
2019-03-27T18:53:59.482Z,57.90
2019-03-27T18:56:24.069Z,58.20
2019-03-27T18:58:52.632Z,58.40
2019-03-27T19:01:21.199Z,58.60
2019-03-27T19:03:49.771Z,58.70
2019-03-27T19:06:18.334Z,58.90
2019-03-27T19:08:46.996Z,58.80
2019-03-27T19:11:15.623Z,58.80
2019-03-27T19:13:44.171Z,58.90
2019-03-27T19:16:12.776Z,58.80
2019-03-27T19:18:41.445Z,59.20
2019-03-27T19:21:10.036Z,59.30
2019-03-27T19:23:38.627Z,59.30
2019-03-27T19:26:07.322Z,59.40
2019-03-27T19:28:35.882Z,59.60
2019-03-27T19:31:05.032Z,59.70
2019-03-27T19:33:33.617Z,59.70
2019-03-27T19:36:02.178Z,59.90
2019-03-27T19:38:30.736Z,60.30
2019-03-27T19:40:59.316Z,60.70
2019-03-27T19:43:27.875Z,61.00
2019-03-27T19:45:57.631Z,61.20
2019-03-27T19:48:26.330Z,62.50
2019-03-27T19:50:57.083Z,61.60
2019-03-27T19:53:25.686Z,62.00
2019-03-27T19:55:54.244Z,62.60
2019-03-27T19:58:24.013Z,63.60
2019-03-27T20:00:53.423Z,64.00
2019-03-27T20:03:22.144Z,64.50
2019-03-27T20:05:51.001Z,64.80
2019-03-27T20:08:19.636Z,65.70
2019-03-27T20:10:48.406Z,65.90
2019-03-27T20:13:17.132Z,65.50
2019-03-27T20:15:45.855Z,66.10
2019-03-27T20:18:14.639Z,67.20
2019-03-27T20:20:43.295Z,67.90
2019-03-27T20:23:15.068Z,67.70
2019-03-27T20:25:42.310Z,68.10
2019-03-27T20:28:10.992Z,68.80
2019-03-27T20:30:39.549Z,69.40
2019-03-27T20:33:08.184Z,70.20
2019-03-27T20:35:37.998Z,70.40
2019-03-27T20:38:06.693Z,71.30
2019-03-27T20:40:35.954Z,72.40
2019-03-27T20:43:04.575Z,72.40
2019-03-27T20:45:33.179Z,72.70
2019-03-27T20:48:01.738Z,73.50
2019-03-27T20:50:30.291Z,74.20
2019-03-27T20:52:59.532Z,74.50
2019-03-27T20:55:30.486Z,75.50
2019-03-27T20:57:58.852Z,75.80
2019-03-27T21:00:27.439Z,76.60
2019-03-27T21:02:56.078Z,76.90
2019-03-27T21:05:24.697Z,77.00
2019-03-27T21:07:53.340Z,77.10
2019-03-27T21:10:21.929Z,77.60
2019-03-27T21:12:50.508Z,77.40
2019-03-27T21:15:19.131Z,77.30
2019-03-27T21:17:47.730Z,77.70
2019-03-27T21:20:16.662Z,77.70
2019-03-27T21:22:45.869Z,78.20
2019-03-27T21:25:14.662Z,78.00
2019-03-27T21:27:43.292Z,78.20
2019-03-27T21:30:13.720Z,79.10
2019-03-27T21:32:42.419Z,78.50
2019-03-27T21:35:11.307Z,78.30
2019-03-27T21:37:39.949Z,78.50
2019-03-27T21:40:09.344Z,78.80
2019-03-27T21:42:37.968Z,79.00
2019-03-27T21:45:09.257Z,79.30
2019-03-27T21:47:38.007Z,79.40
2019-03-27T21:50:07.691Z,79.90
2019-03-27T21:52:36.294Z,80.80
2019-03-27T21:55:06.742Z,81.50
2019-03-27T21:57:35.291Z,82.40
2019-03-27T22:00:05.307Z,82.40
2019-03-27T22:02:33.878Z,83.00
2019-03-27T22:05:02.492Z,83.00
2019-03-27T22:07:31.074Z,83.30
2019-03-27T22:09:59.648Z,83.30
2019-03-27T22:12:28.251Z,83.80
2019-03-27T22:14:56.814Z,84.50
2019-03-27T22:17:25.387Z,85.00
2019-03-27T22:20:30.524Z,85.60
2019-03-27T22:22:59.196Z,85.70
2019-03-27T22:25:35.807Z,86.00
2019-03-27T22:27:58.056Z,85.90
2019-03-27T22:30:26.769Z,86.10
2019-03-27T22:32:55.381Z,86.40
2019-03-27T22:35:23.988Z,86.80
2019-03-27T22:37:52.557Z,87.90
2019-03-27T22:40:21.135Z,88.10
2019-03-27T22:42:49.714Z,88.50
2019-03-27T22:45:18.474Z,88.80
2019-03-27T22:47:53.585Z,88.70
2019-03-27T22:50:23.533Z,89.00
2019-03-27T22:52:54.016Z,89.40
2019-03-27T22:55:23.656Z,89.40
2019-03-27T22:57:55.059Z,89.60
2019-03-27T23:00:25.427Z,90.10
2019-03-27T23:02:54.143Z,90.30
2019-03-27T23:05:22.776Z,91.00
2019-03-27T23:07:51.981Z,91.30
2019-03-27T23:10:20.586Z,91.70
2019-03-27T23:12:49.161Z,92.20
2019-03-27T23:15:17.720Z,92.90
2019-03-27T23:17:49.101Z,93.10
2019-03-27T23:20:17.727Z,93.50
2019-03-27T23:22:46.259Z,93.40
2019-03-27T23:25:14.873Z,93.40
2019-03-27T23:27:43.460Z,93.20
2019-03-27T23:30:12.160Z,92.90
2019-03-27T23:32:40.724Z,92.90
2019-03-27T23:35:10.319Z,92.70
2019-03-27T23:37:38.912Z,92.50
2019-03-27T23:40:08.011Z,92.50
2019-03-27T23:42:36.575Z,92.50
2019-03-27T23:45:06.888Z,92.30
2019-03-27T23:47:35.448Z,92.20
2019-03-27T23:53:01.559Z,92.40
2019-03-27T23:55:30.123Z,92.40
2019-03-27T23:57:58.675Z,92.90
